sensor_id;sensor_type;location;lat;lon;timestamp;temperature;humidity
50738;DHT22;36703;48.154;17.126;2022-12-29T00:00:19;7.40;51.40
50738;DHT22;36703;48.154;17.126;2022-12-29T00:04:21;7.40;51.40
50738;DHT22;36703;48.154;17.126;2022-12-29T00:08:23;7.40;51.20
50738;DHT22;36703;48.154;17.126;2022-12-29T00:12:40;7.40;51.20
50738;DHT22;36703;48.154;17.126;2022-12-29T00:17:00;7.40;51.40
50738;DHT22;36703;48.154;17.126;2022-12-29T00:21:02;7.40;51.50
50738;DHT22;36703;48.154;17.126;2022-12-29T00:25:22;7.40;51.40
50738;DHT22;36703;48.154;17.126;2022-12-29T00:29:42;7.30;52.00
50738;DHT22;36703;48.154;17.126;2022-12-29T00:34:02;7.30;52.20
50738;DHT22;36703;48.154;17.126;2022-12-29T00:38:22;7.20;51.60
50738;DHT22;36703;48.154;17.126;2022-12-29T00:42:42;7.20;51.70
50738;DHT22;36703;48.154;17.126;2022-12-29T00:47:02;7.20;51.80
50738;DHT22;36703;48.154;17.126;2022-12-29T00:51:07;7.20;51.80
50738;DHT22;36703;48.154;17.126;2022-12-29T00:55:09;7.10;51.80
50738;DHT22;36703;48.154;17.126;2022-12-29T00:59:10;7.20;51.90
50738;DHT22;36703;48.154;17.126;2022-12-29T01:03:12;7.20;51.80
50738;DHT22;36703;48.154;17.126;2022-12-29T01:07:13;7.20;51.80
50738;DHT22;36703;48.154;17.126;2022-12-29T01:11:15;7.20;51.60
50738;DHT22;36703;48.154;17.126;2022-12-29T01:15:18;7.20;51.60
50738;DHT22;36703;48.154;17.126;2022-12-29T01:19:20;7.20;51.70
50738;DHT22;36703;48.154;17.126;2022-12-29T01:23:22;7.20;51.80
50738;DHT22;36703;48.154;17.126;2022-12-29T01:27:23;7.10;51.90
50738;DHT22;36703;48.154;17.126;2022-12-29T01:31:25;7.10;51.90
50738;DHT22;36703;48.154;17.126;2022-12-29T01:35:28;7.10;51.90
50738;DHT22;36703;48.154;17.126;2022-12-29T01:39:32;7.00;53.60
50738;DHT22;36703;48.154;17.126;2022-12-29T01:43:53;7.00;52.20
50738;DHT22;36703;48.154;17.126;2022-12-29T01:48:00;7.00;52.20
50738;DHT22;36703;48.154;17.126;2022-12-29T01:52:06;7.00;52.20
50738;DHT22;36703;48.154;17.126;2022-12-29T01:56:12;6.90;52.20
50738;DHT22;36703;48.154;17.126;2022-12-29T02:00:18;6.90;52.40
50738;DHT22;36703;48.154;17.126;2022-12-29T02:04:23;6.90;52.40
50738;DHT22;36703;48.154;17.126;2022-12-29T02:08:28;6.90;52.60
50738;DHT22;36703;48.154;17.126;2022-12-29T02:12:30;6.90;52.50
50738;DHT22;36703;48.154;17.126;2022-12-29T02:21:17;6.90;52.50
50738;DHT22;36703;48.154;17.126;2022-12-29T02:39:27;6.80;57.90
50738;DHT22;36703;48.154;17.126;2022-12-29T02:44:02;6.90;58.10
50738;DHT22;36703;48.154;17.126;2022-12-29T02:52:18;6.90;57.60
50738;DHT22;36703;48.154;17.126;2022-12-29T02:56:23;6.90;57.70
50738;DHT22;36703;48.154;17.126;2022-12-29T03:00:25;6.90;56.60
50738;DHT22;36703;48.154;17.126;2022-12-29T03:04:50;6.90;56.30
50738;DHT22;36703;48.154;17.126;2022-12-29T03:09:49;6.80;55.80
50738;DHT22;36703;48.154;17.126;2022-12-29T03:18:41;6.80;56.00
50738;DHT22;36703;48.154;17.126;2022-12-29T03:22:48;6.80;56.00
50738;DHT22;36703;48.154;17.126;2022-12-29T03:26:58;6.90;55.80
50738;DHT22;36703;48.154;17.126;2022-12-29T03:31:06;6.90;55.60
50738;DHT22;36703;48.154;17.126;2022-12-29T03:35:11;6.90;55.70
50738;DHT22;36703;48.154;17.126;2022-12-29T03:39:17;6.90;55.60
50738;DHT22;36703;48.154;17.126;2022-12-29T03:43:20;6.80;55.70
50738;DHT22;36703;48.154;17.126;2022-12-29T03:47:23;6.80;55.60
50738;DHT22;36703;48.154;17.126;2022-12-29T03:51:25;7.00;55.40
50738;DHT22;36703;48.154;17.126;2022-12-29T03:55:29;6.90;55.30
50738;DHT22;36703;48.154;17.126;2022-12-29T03:59:31;6.90;55.30
50738;DHT22;36703;48.154;17.126;2022-12-29T04:03:33;6.90;55.60
50738;DHT22;36703;48.154;17.126;2022-12-29T04:07:34;6.90;55.60
50738;DHT22;36703;48.154;17.126;2022-12-29T04:11:38;6.80;55.50
50738;DHT22;36703;48.154;17.126;2022-12-29T04:15:40;6.80;55.40
50738;DHT22;36703;48.154;17.126;2022-12-29T04:19:43;6.80;55.40
50738;DHT22;36703;48.154;17.126;2022-12-29T04:23:45;6.80;55.60
50738;DHT22;36703;48.154;17.126;2022-12-29T04:27:47;6.80;56.10
50738;DHT22;36703;48.154;17.126;2022-12-29T04:32:15;6.80;55.80
50738;DHT22;36703;48.154;17.126;2022-12-29T04:36:23;6.80;55.90
50738;DHT22;36703;48.154;17.126;2022-12-29T04:40:24;6.80;55.50
50738;DHT22;36703;48.154;17.126;2022-12-29T04:44:26;6.90;55.60
50738;DHT22;36703;48.154;17.126;2022-12-29T04:48:36;6.90;55.60
50738;DHT22;36703;48.154;17.126;2022-12-29T04:53:00;6.80;55.60
50738;DHT22;36703;48.154;17.126;2022-12-29T04:57:02;6.80;55.70
50738;DHT22;36703;48.154;17.126;2022-12-29T05:01:04;6.90;55.70
50738;DHT22;36703;48.154;17.126;2022-12-29T05:05:06;6.80;55.60
50738;DHT22;36703;48.154;17.126;2022-12-29T05:09:10;6.90;55.60
50738;DHT22;36703;48.154;17.126;2022-12-29T05:13:12;6.80;55.60
50738;DHT22;36703;48.154;17.126;2022-12-29T05:17:14;6.80;55.50
50738;DHT22;36703;48.154;17.126;2022-12-29T05:21:16;6.70;56.20
50738;DHT22;36703;48.154;17.126;2022-12-29T05:25:19;6.90;55.60
50738;DHT22;36703;48.154;17.126;2022-12-29T05:29:33;6.80;55.40
50738;DHT22;36703;48.154;17.126;2022-12-29T05:33:35;6.80;55.50
50738;DHT22;36703;48.154;17.126;2022-12-29T05:37:36;6.80;55.50
50738;DHT22;36703;48.154;17.126;2022-12-29T05:41:38;7.00;55.80
50738;DHT22;36703;48.154;17.126;2022-12-29T05:45:57;6.80;55.70
50738;DHT22;36703;48.154;17.126;2022-12-29T05:50:08;6.70;55.90
50738;DHT22;36703;48.154;17.126;2022-12-29T05:54:28;6.70;54.50
50738;DHT22;36703;48.154;17.126;2022-12-29T05:58:30;6.60;54.50
50738;DHT22;36703;48.154;17.126;2022-12-29T06:02:32;6.70;54.60
50738;DHT22;36703;48.154;17.126;2022-12-29T06:06:34;6.70;54.60
50738;DHT22;36703;48.154;17.126;2022-12-29T06:10:37;6.70;54.70
50738;DHT22;36703;48.154;17.126;2022-12-29T06:14:43;6.60;54.80
50738;DHT22;36703;48.154;17.126;2022-12-29T06:18:44;6.60;54.80
50738;DHT22;36703;48.154;17.126;2022-12-29T06:22:46;6.60;54.90
50738;DHT22;36703;48.154;17.126;2022-12-29T06:26:48;6.60;55.00
50738;DHT22;36703;48.154;17.126;2022-12-29T06:30:50;6.70;54.90
50738;DHT22;36703;48.154;17.126;2022-12-29T06:34:52;6.60;54.90
50738;DHT22;36703;48.154;17.126;2022-12-29T06:38:54;6.60;54.90
50738;DHT22;36703;48.154;17.126;2022-12-29T06:42:57;6.60;54.90
50738;DHT22;36703;48.154;17.126;2022-12-29T06:47:15;6.70;55.00
50738;DHT22;36703;48.154;17.126;2022-12-29T06:51:16;6.70;55.00
50738;DHT22;36703;48.154;17.126;2022-12-29T06:55:18;6.60;54.90
50738;DHT22;36703;48.154;17.126;2022-12-29T06:59:19;6.70;55.00
50738;DHT22;36703;48.154;17.126;2022-12-29T07:03:20;6.70;55.00
50738;DHT22;36703;48.154;17.126;2022-12-29T07:07:22;6.70;55.00
50738;DHT22;36703;48.154;17.126;2022-12-29T07:11:24;6.70;55.00
50738;DHT22;36703;48.154;17.126;2022-12-29T07:15:25;6.70;55.00
50738;DHT22;36703;48.154;17.126;2022-12-29T07:19:27;6.70;55.60
50738;DHT22;36703;48.154;17.126;2022-12-29T07:23:28;6.80;55.10
50738;DHT22;36703;48.154;17.126;2022-12-29T07:27:30;6.80;55.00
50738;DHT22;36703;48.154;17.126;2022-12-29T07:31:31;6.90;55.00
50738;DHT22;36703;48.154;17.126;2022-12-29T07:35:36;6.90;55.00
50738;DHT22;36703;48.154;17.126;2022-12-29T07:39:37;6.90;55.50
50738;DHT22;36703;48.154;17.126;2022-12-29T07:43:39;6.90;55.00
50738;DHT22;36703;48.154;17.126;2022-12-29T07:47:57;7.00;55.10
50738;DHT22;36703;48.154;17.126;2022-12-29T07:51:59;6.90;55.10
50738;DHT22;36703;48.154;17.126;2022-12-29T07:56:00;6.90;55.00
50738;DHT22;36703;48.154;17.126;2022-12-29T08:00:02;6.90;55.00
50738;DHT22;36703;48.154;17.126;2022-12-29T08:04:13;6.90;55.10
50738;DHT22;36703;48.154;17.126;2022-12-29T08:08:14;6.90;55.20
50738;DHT22;36703;48.154;17.126;2022-12-29T08:12:16;6.90;55.20
50738;DHT22;36703;48.154;17.126;2022-12-29T08:16:17;7.00;55.90
50738;DHT22;36703;48.154;17.126;2022-12-29T08:20:19;7.00;55.20
50738;DHT22;36703;48.154;17.126;2022-12-29T08:24:20;7.00;55.10
50738;DHT22;36703;48.154;17.126;2022-12-29T08:28:22;7.00;55.10
50738;DHT22;36703;48.154;17.126;2022-12-29T08:32:23;7.20;55.10
50738;DHT22;36703;48.154;17.126;2022-12-29T08:36:25;7.10;55.00
50738;DHT22;36703;48.154;17.126;2022-12-29T08:40:26;7.00;55.10
50738;DHT22;36703;48.154;17.126;2022-12-29T08:44:28;7.00;55.20
50738;DHT22;36703;48.154;17.126;2022-12-29T08:48:29;7.00;55.20
50738;DHT22;36703;48.154;17.126;2022-12-29T08:52:30;7.00;55.30
50738;DHT22;36703;48.154;17.126;2022-12-29T08:56:32;7.10;55.30
50738;DHT22;36703;48.154;17.126;2022-12-29T09:00:35;7.10;55.30
50738;DHT22;36703;48.154;17.126;2022-12-29T09:04:37;7.10;55.20
50738;DHT22;36703;48.154;17.126;2022-12-29T09:08:38;7.20;55.30
50738;DHT22;36703;48.154;17.126;2022-12-29T09:12:40;7.20;55.30
50738;DHT22;36703;48.154;17.126;2022-12-29T09:16:41;7.20;55.30
50738;DHT22;36703;48.154;17.126;2022-12-29T09:21:04;7.30;55.30
50738;DHT22;36703;48.154;17.126;2022-12-29T09:25:07;7.30;55.20
50738;DHT22;36703;48.154;17.126;2022-12-29T09:29:10;7.30;55.20
50738;DHT22;36703;48.154;17.126;2022-12-29T09:33:11;7.30;55.30
50738;DHT22;36703;48.154;17.126;2022-12-29T09:37:13;7.30;55.10
50738;DHT22;36703;48.154;17.126;2022-12-29T09:41:41;7.30;55.20
50738;DHT22;36703;48.154;17.126;2022-12-29T09:45:45;7.20;55.20
50738;DHT22;36703;48.154;17.126;2022-12-29T09:49:58;7.20;55.30
50738;DHT22;36703;48.154;17.126;2022-12-29T09:54:33;7.20;55.30
50738;DHT22;36703;48.154;17.126;2022-12-29T10:03:14;7.30;55.40
50738;DHT22;36703;48.154;17.126;2022-12-29T10:07:28;7.30;55.40
50738;DHT22;36703;48.154;17.126;2022-12-29T10:25:39;7.50;55.10
50738;DHT22;36703;48.154;17.126;2022-12-29T10:29:49;7.40;55.20
50738;DHT22;36703;48.154;17.126;2022-12-29T10:33:59;7.40;55.20
50738;DHT22;36703;48.154;17.126;2022-12-29T10:38:37;7.40;55.20
50738;DHT22;36703;48.154;17.126;2022-12-29T10:42:49;7.50;55.30
50738;DHT22;36703;48.154;17.126;2022-12-29T10:47:03;7.50;55.30
50738;DHT22;36703;48.154;17.126;2022-12-29T10:51:08;7.50;55.30
50738;DHT22;36703;48.154;17.126;2022-12-29T10:55:15;7.50;55.40
50738;DHT22;36703;48.154;17.126;2022-12-29T10:59:23;7.50;55.40
50738;DHT22;36703;48.154;17.126;2022-12-29T11:03:56;7.60;55.40
50738;DHT22;36703;48.154;17.126;2022-12-29T11:08:16;7.70;55.40
50738;DHT22;36703;48.154;17.126;2022-12-29T11:16:32;7.70;55.20
50738;DHT22;36703;48.154;17.126;2022-12-29T11:20:39;7.70;55.30
50738;DHT22;36703;48.154;17.126;2022-12-29T11:24:46;7.70;55.20
50738;DHT22;36703;48.154;17.126;2022-12-29T11:33:17;7.80;55.40
50738;DHT22;36703;48.154;17.126;2022-12-29T11:37:36;7.80;55.30
50738;DHT22;36703;48.154;17.126;2022-12-29T11:41:51;7.80;55.30
50738;DHT22;36703;48.154;17.126;2022-12-29T11:45:54;7.80;55.40
50738;DHT22;36703;48.154;17.126;2022-12-29T11:50:00;7.90;55.40
50738;DHT22;36703;48.154;17.126;2022-12-29T11:54:04;7.90;55.30
50738;DHT22;36703;48.154;17.126;2022-12-29T11:58:11;7.90;55.30
50738;DHT22;36703;48.154;17.126;2022-12-29T12:06:35;8.00;55.30
50738;DHT22;36703;48.154;17.126;2022-12-29T12:10:53;8.10;55.20
50738;DHT22;36703;48.154;17.126;2022-12-29T12:15:00;8.10;55.30
50738;DHT22;36703;48.154;17.126;2022-12-29T12:19:44;8.20;55.30
50738;DHT22;36703;48.154;17.126;2022-12-29T12:28:55;8.60;55.00
50738;DHT22;36703;48.154;17.126;2022-12-29T12:33:40;9.00;54.70
50738;DHT22;36703;48.154;17.126;2022-12-29T12:38:04;9.10;54.10
50738;DHT22;36703;48.154;17.126;2022-12-29T12:55:40;9.30;53.60
50738;DHT22;36703;48.154;17.126;2022-12-29T13:00:15;9.30;53.60
50738;DHT22;36703;48.154;17.126;2022-12-29T13:09:20;9.10;53.70
50738;DHT22;36703;48.154;17.126;2022-12-29T13:18:31;9.00;53.90
50738;DHT22;36703;48.154;17.126;2022-12-29T13:27:29;9.00;54.20
50738;DHT22;36703;48.154;17.126;2022-12-29T13:32:04;9.30;54.10
50738;DHT22;36703;48.154;17.126;2022-12-29T13:36:37;10.00;56.90
50738;DHT22;36703;48.154;17.126;2022-12-29T13:40:48;10.40;63.60
50738;DHT22;36703;48.154;17.126;2022-12-29T13:45:06;10.80;61.00
50738;DHT22;36703;48.154;17.126;2022-12-29T13:49:19;10.70;65.30
50738;DHT22;36703;48.154;17.126;2022-12-29T13:58:00;10.70;63.90
50738;DHT22;36703;48.154;17.126;2022-12-29T14:06:23;10.30;63.50
50738;DHT22;36703;48.154;17.126;2022-12-29T14:10:47;10.20;63.50
50738;DHT22;36703;48.154;17.126;2022-12-29T14:14:50;10.00;63.50
50738;DHT22;36703;48.154;17.126;2022-12-29T14:18:51;10.00;63.50
50738;DHT22;36703;48.154;17.126;2022-12-29T14:23:17;10.10;63.00
50738;DHT22;36703;48.154;17.126;2022-12-29T14:35:44;10.30;62.30
50738;DHT22;36703;48.154;17.126;2022-12-29T14:40:14;10.00;62.30
50738;DHT22;36703;48.154;17.126;2022-12-29T14:44:24;9.70;62.30
50738;DHT22;36703;48.154;17.126;2022-12-29T14:53:04;9.60;62.60
50738;DHT22;36703;48.154;17.126;2022-12-29T14:57:14;9.60;62.70
50738;DHT22;36703;48.154;17.126;2022-12-29T15:09:56;9.40;63.00
50738;DHT22;36703;48.154;17.126;2022-12-29T15:14:37;9.30;63.00
50738;DHT22;36703;48.154;17.126;2022-12-29T15:18:40;9.20;63.30
50738;DHT22;36703;48.154;17.126;2022-12-29T15:22:44;9.20;63.40
50738;DHT22;36703;48.154;17.126;2022-12-29T15:26:48;9.10;63.40
50738;DHT22;36703;48.154;17.126;2022-12-29T15:31:02;9.10;63.50
50738;DHT22;36703;48.154;17.126;2022-12-29T15:39:31;9.10;63.70
50738;DHT22;36703;48.154;17.126;2022-12-29T15:48:03;9.00;64.10
50738;DHT22;36703;48.154;17.126;2022-12-29T15:52:09;8.90;64.20
50738;DHT22;36703;48.154;17.126;2022-12-29T15:56:10;8.90;64.50
50738;DHT22;36703;48.154;17.126;2022-12-29T16:00:46;8.90;64.60
50738;DHT22;36703;48.154;17.126;2022-12-29T16:04:40;8.80;64.50
50738;DHT22;36703;48.154;17.126;2022-12-29T16:08:46;8.80;64.40
50738;DHT22;36703;48.154;17.126;2022-12-29T16:13:12;8.80;64.50
50738;DHT22;36703;48.154;17.126;2022-12-29T16:17:23;8.80;64.50
50738;DHT22;36703;48.154;17.126;2022-12-29T16:21:31;8.80;64.80
50738;DHT22;36703;48.154;17.126;2022-12-29T16:25:35;8.80;65.00
50738;DHT22;36703;48.154;17.126;2022-12-29T16:29:39;8.80;65.20
50738;DHT22;36703;48.154;17.126;2022-12-29T16:33:49;8.70;65.30
50738;DHT22;36703;48.154;17.126;2022-12-29T16:38:13;8.70;65.30
50738;DHT22;36703;48.154;17.126;2022-12-29T16:46:38;8.70;65.50
50738;DHT22;36703;48.154;17.126;2022-12-29T16:50:47;8.80;65.60
50738;DHT22;36703;48.154;17.126;2022-12-29T16:54:59;8.70;65.50
50738;DHT22;36703;48.154;17.126;2022-12-29T16:59:26;8.70;65.70
50738;DHT22;36703;48.154;17.126;2022-12-29T17:03:38;8.70;66.00
50738;DHT22;36703;48.154;17.126;2022-12-29T17:07:40;8.70;66.00
50738;DHT22;36703;48.154;17.126;2022-12-29T17:11:42;9.00;66.20
50738;DHT22;36703;48.154;17.126;2022-12-29T17:15:55;8.70;66.00
50738;DHT22;36703;48.154;17.126;2022-12-29T17:19:57;8.70;66.10
50738;DHT22;36703;48.154;17.126;2022-12-29T17:24:07;8.80;66.00
50738;DHT22;36703;48.154;17.126;2022-12-29T17:28:24;8.80;65.90
50738;DHT22;36703;48.154;17.126;2022-12-29T17:32:28;8.70;65.90
50738;DHT22;36703;48.154;17.126;2022-12-29T17:36:30;8.70;66.00
50738;DHT22;36703;48.154;17.126;2022-12-29T17:40:31;8.70;66.20
50738;DHT22;36703;48.154;17.126;2022-12-29T17:44:33;8.70;66.00
50738;DHT22;36703;48.154;17.126;2022-12-29T17:48:34;8.60;66.00
50738;DHT22;36703;48.154;17.126;2022-12-29T17:52:36;8.90;66.20
50738;DHT22;36703;48.154;17.126;2022-12-29T17:56:37;8.60;66.00
50738;DHT22;36703;48.154;17.126;2022-12-29T18:00:39;8.70;66.10
50738;DHT22;36703;48.154;17.126;2022-12-29T18:04:40;8.50;65.90
50738;DHT22;36703;48.154;17.126;2022-12-29T18:08:42;8.50;66.10
50738;DHT22;36703;48.154;17.126;2022-12-29T18:12:46;8.60;65.90
50738;DHT22;36703;48.154;17.126;2022-12-29T18:16:49;8.60;65.70
50738;DHT22;36703;48.154;17.126;2022-12-29T18:20:54;8.50;65.70
50738;DHT22;36703;48.154;17.126;2022-12-29T18:24:57;8.60;65.80
50738;DHT22;36703;48.154;17.126;2022-12-29T18:28:58;8.50;65.80
50738;DHT22;36703;48.154;17.126;2022-12-29T18:33:00;8.50;65.70
50738;DHT22;36703;48.154;17.126;2022-12-29T18:37:01;8.50;65.80
50738;DHT22;36703;48.154;17.126;2022-12-29T18:41:03;8.40;65.80
50738;DHT22;36703;48.154;17.126;2022-12-29T18:45:34;8.40;65.90
50738;DHT22;36703;48.154;17.126;2022-12-29T18:49:35;8.40;65.90
50738;DHT22;36703;48.154;17.126;2022-12-29T18:53:37;8.40;66.10
50738;DHT22;36703;48.154;17.126;2022-12-29T18:57:38;8.40;66.20
50738;DHT22;36703;48.154;17.126;2022-12-29T19:01:40;8.30;66.90
50738;DHT22;36703;48.154;17.126;2022-12-29T19:05:42;8.30;67.00
50738;DHT22;36703;48.154;17.126;2022-12-29T19:09:44;8.30;66.80
50738;DHT22;36703;48.154;17.126;2022-12-29T19:13:46;8.20;67.00
50738;DHT22;36703;48.154;17.126;2022-12-29T19:17:47;8.50;67.10
50738;DHT22;36703;48.154;17.126;2022-12-29T19:21:49;8.10;66.90
50738;DHT22;36703;48.154;17.126;2022-12-29T19:25:56;8.10;66.50
50738;DHT22;36703;48.154;17.126;2022-12-29T19:29:57;8.20;66.60
50738;DHT22;36703;48.154;17.126;2022-12-29T19:34:00;8.40;66.10
50738;DHT22;36703;48.154;17.126;2022-12-29T19:38:03;8.30;65.60
50738;DHT22;36703;48.154;17.126;2022-12-29T19:42:05;8.20;65.70
50738;DHT22;36703;48.154;17.126;2022-12-29T19:46:09;8.20;65.80
50738;DHT22;36703;48.154;17.126;2022-12-29T19:50:13;8.20;65.70
50738;DHT22;36703;48.154;17.126;2022-12-29T19:54:16;8.20;65.80
50738;DHT22;36703;48.154;17.126;2022-12-29T19:58:17;8.20;65.90
50738;DHT22;36703;48.154;17.126;2022-12-29T20:02:24;8.10;65.80
50738;DHT22;36703;48.154;17.126;2022-12-29T20:06:27;8.10;65.70
50738;DHT22;36703;48.154;17.126;2022-12-29T20:10:29;8.10;65.70
50738;DHT22;36703;48.154;17.126;2022-12-29T20:14:30;8.10;65.80
50738;DHT22;36703;48.154;17.126;2022-12-29T20:18:32;8.10;65.70
50738;DHT22;36703;48.154;17.126;2022-12-29T20:22:35;8.10;65.40
50738;DHT22;36703;48.154;17.126;2022-12-29T20:26:37;8.10;65.30
50738;DHT22;36703;48.154;17.126;2022-12-29T20:30:39;8.10;65.40
50738;DHT22;36703;48.154;17.126;2022-12-29T20:34:41;8.00;65.50
50738;DHT22;36703;48.154;17.126;2022-12-29T20:38:43;8.10;65.40
50738;DHT22;36703;48.154;17.126;2022-12-29T20:42:45;7.90;65.20
50738;DHT22;36703;48.154;17.126;2022-12-29T20:46:47;7.90;65.30
50738;DHT22;36703;48.154;17.126;2022-12-29T20:50:49;8.00;64.80
50738;DHT22;36703;48.154;17.126;2022-12-29T20:54:50;7.90;64.30
50738;DHT22;36703;48.154;17.126;2022-12-29T20:58:53;7.90;64.20
50738;DHT22;36703;48.154;17.126;2022-12-29T21:02:56;7.80;64.00
50738;DHT22;36703;48.154;17.126;2022-12-29T21:06:58;7.90;63.70
50738;DHT22;36703;48.154;17.126;2022-12-29T21:11:00;7.90;63.80
50738;DHT22;36703;48.154;17.126;2022-12-29T21:15:02;7.90;63.70
50738;DHT22;36703;48.154;17.126;2022-12-29T21:19:04;7.90;63.50
50738;DHT22;36703;48.154;17.126;2022-12-29T21:23:05;7.90;63.40
50738;DHT22;36703;48.154;17.126;2022-12-29T21:27:07;8.20;63.70
50738;DHT22;36703;48.154;17.126;2022-12-29T21:31:09;7.80;63.40
50738;DHT22;36703;48.154;17.126;2022-12-29T21:35:24;7.90;63.10
50738;DHT22;36703;48.154;17.126;2022-12-29T21:39:26;7.90;63.00
50738;DHT22;36703;48.154;17.126;2022-12-29T21:43:27;7.80;63.60
50738;DHT22;36703;48.154;17.126;2022-12-29T21:47:31;7.80;62.90
50738;DHT22;36703;48.154;17.126;2022-12-29T21:51:53;7.80;62.60
50738;DHT22;36703;48.154;17.126;2022-12-29T21:55:57;7.70;62.40
50738;DHT22;36703;48.154;17.126;2022-12-29T21:59:58;7.80;62.40
50738;DHT22;36703;48.154;17.126;2022-12-29T22:04:22;7.80;62.30
50738;DHT22;36703;48.154;17.126;2022-12-29T22:08:42;7.90;62.10
50738;DHT22;36703;48.154;17.126;2022-12-29T22:13:02;7.70;61.50
50738;DHT22;36703;48.154;17.126;2022-12-29T22:17:04;7.40;57.60
50738;DHT22;36703;48.154;17.126;2022-12-29T22:21:06;7.50;57.50
50738;DHT22;36703;48.154;17.126;2022-12-29T22:25:09;7.60;57.20
50738;DHT22;36703;48.154;17.126;2022-12-29T22:29:10;7.50;57.20
50738;DHT22;36703;48.154;17.126;2022-12-29T22:33:12;7.50;57.10
50738;DHT22;36703;48.154;17.126;2022-12-29T22:37:14;7.50;56.70
50738;DHT22;36703;48.154;17.126;2022-12-29T22:41:16;7.50;56.60
50738;DHT22;36703;48.154;17.126;2022-12-29T22:45:18;7.50;56.60
50738;DHT22;36703;48.154;17.126;2022-12-29T22:49:19;7.50;56.60
50738;DHT22;36703;48.154;17.126;2022-12-29T22:53:20;7.50;56.70
50738;DHT22;36703;48.154;17.126;2022-12-29T22:57:22;7.50;56.60
50738;DHT22;36703;48.154;17.126;2022-12-29T23:01:24;7.50;56.70
50738;DHT22;36703;48.154;17.126;2022-12-29T23:05:25;7.50;56.60
50738;DHT22;36703;48.154;17.126;2022-12-29T23:09:27;7.50;56.50
50738;DHT22;36703;48.154;17.126;2022-12-29T23:13:28;7.40;56.50
50738;DHT22;36703;48.154;17.126;2022-12-29T23:17:30;7.40;56.70
50738;DHT22;36703;48.154;17.126;2022-12-29T23:21:31;7.40;56.70
50738;DHT22;36703;48.154;17.126;2022-12-29T23:25:37;7.40;56.70
50738;DHT22;36703;48.154;17.126;2022-12-29T23:29:38;7.40;56.60
50738;DHT22;36703;48.154;17.126;2022-12-29T23:33:40;7.40;56.70
50738;DHT22;36703;48.154;17.126;2022-12-29T23:37:41;7.40;56.70
50738;DHT22;36703;48.154;17.126;2022-12-29T23:41:43;7.40;56.70
50738;DHT22;36703;48.154;17.126;2022-12-29T23:45:44;7.40;56.80
50738;DHT22;36703;48.154;17.126;2022-12-29T23:49:46;7.40;56.90
50738;DHT22;36703;48.154;17.126;2022-12-29T23:53:47;7.50;56.80
50738;DHT22;36703;48.154;17.126;2022-12-29T23:57:49;7.30;56.80
